sensor_id;sensor_type;location;lat;lon;timestamp;pressure;altitude;pressure_sealevel;temperature
69785;BMP280;14177;51.520;6.764;2023-04-12T00:01:19;100445.69;;;11.60
69785;BMP280;14177;51.520;6.764;2023-04-12T00:03:46;100454.22;;;11.63
69785;BMP280;14177;51.520;6.764;2023-04-12T00:06:16;100448.88;;;11.66
69785;BMP280;14177;51.520;6.764;2023-04-12T00:08:44;100436.59;;;11.70
69785;BMP280;14177;51.520;6.764;2023-04-12T00:11:15;100437.50;;;11.69
69785;BMP280;14177;51.520;6.764;2023-04-12T00:13:42;100441.47;;;11.57
69785;BMP280;14177;51.520;6.764;2023-04-12T00:16:10;100442.97;;;11.63
69785;BMP280;14177;51.520;6.764;2023-04-12T00:18:43;100434.78;;;11.50
69785;BMP280;14177;51.520;6.764;2023-04-12T00:21:22;100421.94;;;11.46
69785;BMP280;14177;51.520;6.764;2023-04-12T00:23:56;100427.63;;;11.34
69785;BMP280;14177;51.520;6.764;2023-04-12T00:26:24;100424.63;;;11.23
69785;BMP280;14177;51.520;6.764;2023-04-12T00:28:53;100418.06;;;11.13
69785;BMP280;14177;51.520;6.764;2023-04-12T00:31:20;100399.44;;;11.02
69785;BMP280;14177;51.520;6.764;2023-04-12T00:33:47;100406.56;;;10.97
69785;BMP280;14177;51.520;6.764;2023-04-12T00:36:14;100395.44;;;10.93
69785;BMP280;14177;51.520;6.764;2023-04-12T00:38:42;100387.09;;;10.86
69785;BMP280;14177;51.520;6.764;2023-04-12T00:41:13;100377.78;;;10.80
69785;BMP280;14177;51.520;6.764;2023-04-12T00:43:41;100372.69;;;10.77
69785;BMP280;14177;51.520;6.764;2023-04-12T00:46:12;100377.28;;;10.71
69785;BMP280;14177;51.520;6.764;2023-04-12T00:48:40;100362.97;;;10.59
69785;BMP280;14177;51.520;6.764;2023-04-12T00:51:07;100365.44;;;10.64
69785;BMP280;14177;51.520;6.764;2023-04-12T00:53:39;100358.88;;;10.54
69785;BMP280;14177;51.520;6.764;2023-04-12T00:56:07;100355.38;;;10.55
69785;BMP280;14177;51.520;6.764;2023-04-12T00:58:37;100334.72;;;10.52
69785;BMP280;14177;51.520;6.764;2023-04-12T01:01:05;100334.00;;;10.48
69785;BMP280;14177;51.520;6.764;2023-04-12T01:03:33;100323.75;;;10.44
69785;BMP280;14177;51.520;6.764;2023-04-12T01:16:19;100309.59;;;10.29
69785;BMP280;14177;51.520;6.764;2023-04-12T01:23:11;100298.66;;;10.21
69785;BMP280;14177;51.520;6.764;2023-04-12T01:26:41;100285.88;;;10.17
69785;BMP280;14177;51.520;6.764;2023-04-12T01:29:14;100287.78;;;10.12
69785;BMP280;14177;51.520;6.764;2023-04-12T01:31:59;100281.78;;;10.10
69785;BMP280;14177;51.520;6.764;2023-04-12T01:34:33;100268.63;;;10.14
69785;BMP280;14177;51.520;6.764;2023-04-12T01:37:02;100260.34;;;10.05
69785;BMP280;14177;51.520;6.764;2023-04-12T01:39:32;100257.75;;;10.05
69785;BMP280;14177;51.520;6.764;2023-04-12T01:42:01;100249.06;;;10.06
69785;BMP280;14177;51.520;6.764;2023-04-12T01:44:28;100253.47;;;10.04
69785;BMP280;14177;51.520;6.764;2023-04-12T01:46:55;100255.41;;;9.97
69785;BMP280;14177;51.520;6.764;2023-04-12T01:49:30;100241.59;;;9.97
69785;BMP280;14177;51.520;6.764;2023-04-12T01:52:11;100234.72;;;9.96
69785;BMP280;14177;51.520;6.764;2023-04-12T01:54:42;100219.13;;;9.96
69785;BMP280;14177;51.520;6.764;2023-04-12T01:57:12;100205.75;;;9.83
69785;BMP280;14177;51.520;6.764;2023-04-12T01:59:42;100209.13;;;9.85
69785;BMP280;14177;51.520;6.764;2023-04-12T02:02:11;100209.31;;;9.81
69785;BMP280;14177;51.520;6.764;2023-04-12T02:04:41;100202.56;;;9.77
69785;BMP280;14177;51.520;6.764;2023-04-12T02:07:10;100189.66;;;9.75
69785;BMP280;14177;51.520;6.764;2023-04-12T02:09:38;100187.31;;;9.68
69785;BMP280;14177;51.520;6.764;2023-04-12T02:12:07;100187.50;;;9.63
69785;BMP280;14177;51.520;6.764;2023-04-12T02:14:36;100178.94;;;9.62
69785;BMP280;14177;51.520;6.764;2023-04-12T02:17:04;100177.16;;;9.62
69785;BMP280;14177;51.520;6.764;2023-04-12T02:19:32;100175.47;;;9.61
69785;BMP280;14177;51.520;6.764;2023-04-12T02:22:00;100147.84;;;9.60
69785;BMP280;14177;51.520;6.764;2023-04-12T02:24:28;100142.09;;;9.52
69785;BMP280;14177;51.520;6.764;2023-04-12T02:26:57;100134.44;;;9.49
69785;BMP280;14177;51.520;6.764;2023-04-12T02:29:25;100131.06;;;9.47
69785;BMP280;14177;51.520;6.764;2023-04-12T02:31:54;100133.63;;;9.47
69785;BMP280;14177;51.520;6.764;2023-04-12T02:34:25;100137.22;;;9.45
69785;BMP280;14177;51.520;6.764;2023-04-12T02:37:00;100125.38;;;9.38
69785;BMP280;14177;51.520;6.764;2023-04-12T02:39:27;100115.84;;;9.38
69785;BMP280;14177;51.520;6.764;2023-04-12T02:41:56;100121.84;;;9.40
69785;BMP280;14177;51.520;6.764;2023-04-12T02:44:24;100108.09;;;9.38
69785;BMP280;14177;51.520;6.764;2023-04-12T02:47:12;100098.63;;;9.37
69785;BMP280;14177;51.520;6.764;2023-04-12T02:49:47;100094.25;;;9.38
69785;BMP280;14177;51.520;6.764;2023-04-12T02:52:21;100080.28;;;9.42
69785;BMP280;14177;51.520;6.764;2023-04-12T02:55:40;100079.69;;;9.35
69785;BMP280;14177;51.520;6.764;2023-04-12T02:58:48;100065.25;;;9.28
69785;BMP280;14177;51.520;6.764;2023-04-12T03:01:31;100060.00;;;9.30
69785;BMP280;14177;51.520;6.764;2023-04-12T03:04:18;100044.69;;;9.24
69785;BMP280;14177;51.520;6.764;2023-04-12T03:06:51;100024.81;;;9.24
69785;BMP280;14177;51.520;6.764;2023-04-12T03:09:39;100024.06;;;9.21
69785;BMP280;14177;51.520;6.764;2023-04-12T03:12:08;100003.28;;;9.22
69785;BMP280;14177;51.520;6.764;2023-04-12T03:14:42;100005.81;;;9.24
69785;BMP280;14177;51.520;6.764;2023-04-12T03:17:09;100003.22;;;9.24
69785;BMP280;14177;51.520;6.764;2023-04-12T03:19:36;100003.28;;;9.22
69785;BMP280;14177;51.520;6.764;2023-04-12T03:22:04;100000.91;;;9.16
69785;BMP280;14177;51.520;6.764;2023-04-12T03:24:34;99984.59;;;9.14
69785;BMP280;14177;51.520;6.764;2023-04-12T03:27:04;99976.69;;;9.17
69785;BMP280;14177;51.520;6.764;2023-04-12T03:29:33;99978.38;;;9.18
69785;BMP280;14177;51.520;6.764;2023-04-12T03:32:02;99989.81;;;9.13
69785;BMP280;14177;51.520;6.764;2023-04-12T03:34:29;99970.75;;;9.14
69785;BMP280;14177;51.520;6.764;2023-04-12T03:37:02;99959.47;;;9.16
69785;BMP280;14177;51.520;6.764;2023-04-12T03:39:39;99951.72;;;9.15
69785;BMP280;14177;51.520;6.764;2023-04-12T03:42:08;99969.59;;;9.22
69785;BMP280;14177;51.520;6.764;2023-04-12T03:44:56;99946.03;;;9.28
69785;BMP280;14177;51.520;6.764;2023-04-12T03:47:24;99939.28;;;9.24
69785;BMP280;14177;51.520;6.764;2023-04-12T03:49:54;99927.28;;;9.22
69785;BMP280;14177;51.520;6.764;2023-04-12T03:52:37;99918.59;;;9.23
69785;BMP280;14177;51.520;6.764;2023-04-12T03:55:06;99908.19;;;9.24
69785;BMP280;14177;51.520;6.764;2023-04-12T03:57:34;99908.31;;;9.21
69785;BMP280;14177;51.520;6.764;2023-04-12T04:00:03;99897.03;;;9.22
69785;BMP280;14177;51.520;6.764;2023-04-12T04:02:43;99892.69;;;9.23
69785;BMP280;14177;51.520;6.764;2023-04-12T04:05:14;99894.44;;;9.22
69785;BMP280;14177;51.520;6.764;2023-04-12T04:07:43;99880.53;;;9.25
69785;BMP280;14177;51.520;6.764;2023-04-12T04:10:11;99880.63;;;9.22
69785;BMP280;14177;51.520;6.764;2023-04-12T04:12:40;99886.69;;;9.22
69785;BMP280;14177;51.520;6.764;2023-04-12T04:15:10;99876.06;;;9.28
69785;BMP280;14177;51.520;6.764;2023-04-12T04:17:37;99876.75;;;9.33
69785;BMP280;14177;51.520;6.764;2023-04-12T04:20:05;99867.84;;;9.39
69785;BMP280;14177;51.520;6.764;2023-04-12T04:22:37;99858.72;;;9.30
69785;BMP280;14177;51.520;6.764;2023-04-12T04:25:05;99868.06;;;9.34
69785;BMP280;14177;51.520;6.764;2023-04-12T04:27:42;99856.91;;;9.32
69785;BMP280;14177;51.520;6.764;2023-04-12T04:30:12;99851.47;;;9.38
69785;BMP280;14177;51.520;6.764;2023-04-12T04:32:44;99846.66;;;9.29
69785;BMP280;14177;51.520;6.764;2023-04-12T04:35:14;99837.00;;;9.33
69785;BMP280;14177;51.520;6.764;2023-04-12T04:38:06;99834.25;;;9.37
69785;BMP280;14177;51.520;6.764;2023-04-12T04:40:36;99841.25;;;9.35
69785;BMP280;14177;51.520;6.764;2023-04-12T04:43:06;99824.25;;;9.28
69785;BMP280;14177;51.520;6.764;2023-04-12T04:45:40;99827.50;;;9.33
69785;BMP280;14177;51.520;6.764;2023-04-12T04:48:09;99817.91;;;9.35
69785;BMP280;14177;51.520;6.764;2023-04-12T04:50:37;99819.66;;;9.35
69785;BMP280;14177;51.520;6.764;2023-04-12T04:53:04;99820.63;;;9.32
69785;BMP280;14177;51.520;6.764;2023-04-12T04:55:33;99817.41;;;9.26
69785;BMP280;14177;51.520;6.764;2023-04-12T04:58:02;99810.13;;;9.35
69785;BMP280;14177;51.520;6.764;2023-04-12T05:00:32;99813.63;;;9.34
69785;BMP280;14177;51.520;6.764;2023-04-12T05:03:07;99807.00;;;9.27
69785;BMP280;14177;51.520;6.764;2023-04-12T05:05:35;99801.88;;;9.26
69785;BMP280;14177;51.520;6.764;2023-04-12T05:08:07;99803.03;;;9.19
69785;BMP280;14177;51.520;6.764;2023-04-12T05:10:35;99798.03;;;9.14
69785;BMP280;14177;51.520;6.764;2023-04-12T05:13:03;99804.59;;;9.23
69785;BMP280;14177;51.520;6.764;2023-04-12T05:15:30;99799.41;;;9.23
69785;BMP280;14177;51.520;6.764;2023-04-12T05:18:01;99792.91;;;9.13
69785;BMP280;14177;51.520;6.764;2023-04-12T05:20:29;99791.97;;;9.15
69785;BMP280;14177;51.520;6.764;2023-04-12T05:22:58;99788.69;;;9.10
69785;BMP280;14177;51.520;6.764;2023-04-12T05:25:25;99786.91;;;9.12
69785;BMP280;14177;51.520;6.764;2023-04-12T05:28:00;99776.41;;;9.15
69785;BMP280;14177;51.520;6.764;2023-04-12T05:30:28;99777.31;;;9.14
69785;BMP280;14177;51.520;6.764;2023-04-12T05:32:56;99779.03;;;9.14
69785;BMP280;14177;51.520;6.764;2023-04-12T05:35:24;99763.81;;;9.06
69785;BMP280;14177;51.520;6.764;2023-04-12T05:37:56;99749.97;;;9.07
69785;BMP280;14177;51.520;6.764;2023-04-12T05:40:23;99755.94;;;9.09
69785;BMP280;14177;51.520;6.764;2023-04-12T05:42:53;99757.81;;;9.06
69785;BMP280;14177;51.520;6.764;2023-04-12T05:45:20;99751.66;;;9.08
69785;BMP280;14177;51.520;6.764;2023-04-12T05:47:47;99738.94;;;9.02
69785;BMP280;14177;51.520;6.764;2023-04-12T05:50:14;99736.56;;;8.98
69785;BMP280;14177;51.520;6.764;2023-04-12T05:52:42;99729.75;;;8.95
69785;BMP280;14177;51.520;6.764;2023-04-12T05:55:09;99730.28;;;9.03
69785;BMP280;14177;51.520;6.764;2023-04-12T05:57:40;99730.28;;;9.03
69785;BMP280;14177;51.520;6.764;2023-04-12T06:00:08;99723.28;;;9.05
69785;BMP280;14177;51.520;6.764;2023-04-12T06:02:49;99721.59;;;9.04
69785;BMP280;14177;51.520;6.764;2023-04-12T06:05:17;99730.72;;;9.13
69785;BMP280;14177;51.520;6.764;2023-04-12T06:07:45;99724.72;;;9.12
69785;BMP280;14177;51.520;6.764;2023-04-12T06:10:16;99727.19;;;9.15
69785;BMP280;14177;51.520;6.764;2023-04-12T06:12:50;99718.63;;;9.13
69785;BMP280;14177;51.520;6.764;2023-04-12T06:15:18;99705.69;;;9.13
69785;BMP280;14177;51.520;6.764;2023-04-12T06:17:50;99703.75;;;9.18
69785;BMP280;14177;51.520;6.764;2023-04-12T06:20:17;99695.06;;;9.19
69785;BMP280;14177;51.520;6.764;2023-04-12T06:22:45;99685.41;;;9.23
69785;BMP280;14177;51.520;6.764;2023-04-12T06:25:15;99676.97;;;9.18
69785;BMP280;14177;51.520;6.764;2023-04-12T06:27:44;99684.56;;;9.22
69785;BMP280;14177;51.520;6.764;2023-04-12T06:30:20;99673.94;;;9.28
69785;BMP280;14177;51.520;6.764;2023-04-12T06:33:01;99692.78;;;9.32
69785;BMP280;14177;51.520;6.764;2023-04-12T06:36:04;99684.84;;;9.36
69785;BMP280;14177;51.520;6.764;2023-04-12T06:38:42;99679.69;;;9.35
69785;BMP280;14177;51.520;6.764;2023-04-12T06:41:35;99675.50;;;9.32
69785;BMP280;14177;51.520;6.764;2023-04-12T06:44:22;99665.84;;;9.36
69785;BMP280;14177;51.520;6.764;2023-04-12T06:47:51;99664.88;;;9.38
69785;BMP280;14177;51.520;6.764;2023-04-12T06:50:35;99655.28;;;9.40
69785;BMP280;14177;51.520;6.764;2023-04-12T06:53:16;99651.78;;;9.41
69785;BMP280;14177;51.520;6.764;2023-04-12T06:59:02;99636.03;;;9.46
69785;BMP280;14177;51.520;6.764;2023-04-12T07:05:31;99640.50;;;9.42
69785;BMP280;14177;51.520;6.764;2023-04-12T07:08:06;99634.56;;;9.40
69785;BMP280;14177;51.520;6.764;2023-04-12T07:10:40;99637.78;;;9.45
69785;BMP280;14177;51.520;6.764;2023-04-12T07:13:38;99637.06;;;9.42
69785;BMP280;14177;51.520;6.764;2023-04-12T07:19:57;99624.66;;;9.48
69785;BMP280;14177;51.520;6.764;2023-04-12T07:22:38;99626.94;;;9.56
69785;BMP280;14177;51.520;6.764;2023-04-12T07:25:07;99602.34;;;9.64
69785;BMP280;14177;51.520;6.764;2023-04-12T07:27:40;99615.28;;;9.64
69785;BMP280;14177;51.520;6.764;2023-04-12T07:30:09;99601.56;;;9.62
69785;BMP280;14177;51.520;6.764;2023-04-12T07:32:36;99599.47;;;9.70
69785;BMP280;14177;51.520;6.764;2023-04-12T07:35:04;99601.41;;;9.65
69785;BMP280;14177;51.520;6.764;2023-04-12T07:37:31;99598.00;;;9.64
69785;BMP280;14177;51.520;6.764;2023-04-12T07:39:58;99596.09;;;9.68
69785;BMP280;14177;51.520;6.764;2023-04-12T07:42:26;99597.00;;;9.67
69785;BMP280;14177;51.520;6.764;2023-04-12T07:44:53;99576.75;;;9.75
69785;BMP280;14177;51.520;6.764;2023-04-12T07:47:20;99589.88;;;9.72
69785;BMP280;14177;51.520;6.764;2023-04-12T07:49:47;99589.09;;;9.70
69785;BMP280;14177;51.520;6.764;2023-04-12T07:52:14;99570.59;;;9.77
69785;BMP280;14177;51.520;6.764;2023-04-12T08:08:15;99582.81;;;9.75
69785;BMP280;14177;51.520;6.764;2023-04-12T08:10:42;99583.63;;;9.76
69785;BMP280;14177;51.520;6.764;2023-04-12T08:13:09;99574.78;;;9.80
69785;BMP280;14177;51.520;6.764;2023-04-12T08:15:36;99575.44;;;9.85
69785;BMP280;14177;51.520;6.764;2023-04-12T08:18:04;99570.09;;;9.88
69785;BMP280;14177;51.520;6.764;2023-04-12T08:20:31;99566.44;;;9.92
69785;BMP280;14177;51.520;6.764;2023-04-12T08:29:43;99562.25;;;10.08
69785;BMP280;14177;51.520;6.764;2023-04-12T08:32:10;99563.66;;;10.15
69785;BMP280;14177;51.520;6.764;2023-04-12T08:34:38;99559.09;;;10.20
69785;BMP280;14177;51.520;6.764;2023-04-12T08:37:05;99565.78;;;10.24
69785;BMP280;14177;51.520;6.764;2023-04-12T08:39:32;99553.56;;;10.26
69785;BMP280;14177;51.520;6.764;2023-04-12T08:42:00;99548.22;;;10.29
69785;BMP280;14177;51.520;6.764;2023-04-12T08:44:37;99554.19;;;10.31
69785;BMP280;14177;51.520;6.764;2023-04-12T08:47:07;99551.44;;;10.34
69785;BMP280;14177;51.520;6.764;2023-04-12T08:49:36;99555.03;;;10.31
69785;BMP280;14177;51.520;6.764;2023-04-12T08:52:06;99559.84;;;10.39
69785;BMP280;14177;51.520;6.764;2023-04-12T08:54:34;99555.66;;;10.36
69785;BMP280;14177;51.520;6.764;2023-04-12T08:57:07;99567.78;;;10.36
69785;BMP280;14177;51.520;6.764;2023-04-12T08:59:41;99561.81;;;10.34
69785;BMP280;14177;51.520;6.764;2023-04-12T09:02:08;99551.59;;;10.31
69785;BMP280;14177;51.520;6.764;2023-04-12T09:04:49;99558.59;;;10.29
69785;BMP280;14177;51.520;6.764;2023-04-12T09:07:22;99571.44;;;10.32
69785;BMP280;14177;51.520;6.764;2023-04-12T09:10:10;99558.69;;;10.27
69785;BMP280;14177;51.520;6.764;2023-04-12T09:12:54;99559.81;;;10.22
69785;BMP280;14177;51.520;6.764;2023-04-12T09:15:22;99572.66;;;10.25
69785;BMP280;14177;51.520;6.764;2023-04-12T09:18:06;99566.47;;;10.27
69785;BMP280;14177;51.520;6.764;2023-04-12T09:20:35;99564.81;;;10.26
69785;BMP280;14177;51.520;6.764;2023-04-12T09:23:20;99561.59;;;10.21
69785;BMP280;14177;51.520;6.764;2023-04-12T09:25:47;99557.22;;;10.22
69785;BMP280;14177;51.520;6.764;2023-04-12T09:28:25;99557.22;;;10.22
69785;BMP280;14177;51.520;6.764;2023-04-12T09:30:54;99542.56;;;10.21
69785;BMP280;14177;51.520;6.764;2023-04-12T09:33:37;99547.69;;;10.22
69785;BMP280;14177;51.520;6.764;2023-04-12T09:36:06;99554.47;;;10.25
69785;BMP280;14177;51.520;6.764;2023-04-12T09:38:57;99549.63;;;10.36
69785;BMP280;14177;51.520;6.764;2023-04-12T09:41:24;99541.53;;;10.42
69785;BMP280;14177;51.520;6.764;2023-04-12T09:44:00;99541.84;;;10.53
69785;BMP280;14177;51.520;6.764;2023-04-12T09:46:28;99543.06;;;10.63
69785;BMP280;14177;51.520;6.764;2023-04-12T09:48:57;99543.59;;;10.69
69785;BMP280;14177;51.520;6.764;2023-04-12T09:51:26;99541.38;;;10.79
69785;BMP280;14177;51.520;6.764;2023-04-12T09:54:02;99547.63;;;10.91
69785;BMP280;14177;51.520;6.764;2023-04-12T09:56:33;99541.78;;;11.03
69785;BMP280;14177;51.520;6.764;2023-04-12T09:59:04;99539.25;;;11.19
69785;BMP280;14177;51.520;6.764;2023-04-12T10:01:35;99532.66;;;11.29
69785;BMP280;14177;51.520;6.764;2023-04-12T10:04:05;99536.50;;;11.37
69785;BMP280;14177;51.520;6.764;2023-04-12T10:06:37;99530.06;;;11.44
69785;BMP280;14177;51.520;6.764;2023-04-12T10:09:12;99528.97;;;11.48
69785;BMP280;14177;51.520;6.764;2023-04-12T10:11:40;99532.16;;;11.53
69785;BMP280;14177;51.520;6.764;2023-04-12T10:14:19;99520.88;;;11.54
69785;BMP280;14177;51.520;6.764;2023-04-12T10:17:01;99517.03;;;11.61
69785;BMP280;14177;51.520;6.764;2023-04-12T10:19:31;99513.81;;;11.72
69785;BMP280;14177;51.520;6.764;2023-04-12T10:22:02;99520.53;;;11.76
69785;BMP280;14177;51.520;6.764;2023-04-12T10:24:30;99527.00;;;11.69
69785;BMP280;14177;51.520;6.764;2023-04-12T10:26:58;99545.53;;;11.63
69785;BMP280;14177;51.520;6.764;2023-04-12T10:29:31;99552.94;;;11.38
69785;BMP280;14177;51.520;6.764;2023-04-12T10:32:24;99555.47;;;11.07
69785;BMP280;14177;51.520;6.764;2023-04-12T10:34:57;99555.66;;;10.87
69785;BMP280;14177;51.520;6.764;2023-04-12T10:37:57;99559.94;;;10.71
69785;BMP280;14177;51.520;6.764;2023-04-12T10:40:29;99551.47;;;10.68
69785;BMP280;14177;51.520;6.764;2023-04-12T10:43:26;99561.69;;;10.71
69785;BMP280;14177;51.520;6.764;2023-04-12T10:45:54;99566.91;;;10.71
69785;BMP280;14177;51.520;6.764;2023-04-12T10:48:39;99569.34;;;10.74
69785;BMP280;14177;51.520;6.764;2023-04-12T10:51:24;99568.13;;;10.81
69785;BMP280;14177;51.520;6.764;2023-04-12T10:56:45;99559.06;;;11.04
69785;BMP280;14177;51.520;6.764;2023-04-12T10:59:22;99564.53;;;11.15
69785;BMP280;14177;51.520;6.764;2023-04-12T11:04:31;99557.69;;;11.30
69785;BMP280;14177;51.520;6.764;2023-04-12T11:07:09;99559.38;;;11.31
69785;BMP280;14177;51.520;6.764;2023-04-12T11:09:41;99561.75;;;11.35
69785;BMP280;14177;51.520;6.764;2023-04-12T11:12:15;99558.72;;;11.43
69785;BMP280;14177;51.520;6.764;2023-04-12T11:14:47;99548.16;;;11.46
69785;BMP280;14177;51.520;6.764;2023-04-12T11:19:59;99540.84;;;11.85
69785;BMP280;14177;51.520;6.764;2023-04-12T11:22:30;99541.00;;;11.97
69785;BMP280;14177;51.520;6.764;2023-04-12T11:25:00;99544.34;;;12.14
69785;BMP280;14177;51.520;6.764;2023-04-12T11:27:29;99550.28;;;12.32
69785;BMP280;14177;51.520;6.764;2023-04-12T11:29:59;99549.75;;;12.41
69785;BMP280;14177;51.520;6.764;2023-04-12T11:32:29;99546.31;;;12.40
69785;BMP280;14177;51.520;6.764;2023-04-12T11:34:57;99553.19;;;12.41
69785;BMP280;14177;51.520;6.764;2023-04-12T11:37:30;99555.88;;;12.40
69785;BMP280;14177;51.520;6.764;2023-04-12T11:39:58;99567.22;;;12.39
69785;BMP280;14177;51.520;6.764;2023-04-12T11:42:26;99566.69;;;12.48
69785;BMP280;14177;51.520;6.764;2023-04-12T11:44:58;99567.84;;;12.58
69785;BMP280;14177;51.520;6.764;2023-04-12T11:47:32;99562.22;;;12.65
69785;BMP280;14177;51.520;6.764;2023-04-12T11:50:00;99559.78;;;12.62
69785;BMP280;14177;51.520;6.764;2023-04-12T11:52:32;99553.66;;;12.63
69785;BMP280;14177;51.520;6.764;2023-04-12T11:55:04;99555.44;;;12.77
69785;BMP280;14177;51.520;6.764;2023-04-12T11:57:38;99562.03;;;12.98
69785;BMP280;14177;51.520;6.764;2023-04-12T12:00:06;99539.97;;;13.17
69785;BMP280;14177;51.520;6.764;2023-04-12T12:02:38;99524.22;;;13.46
69785;BMP280;14177;51.520;6.764;2023-04-12T12:05:19;99534.06;;;13.83
69785;BMP280;14177;51.520;6.764;2023-04-12T12:07:47;99536.22;;;14.03
69785;BMP280;14177;51.520;6.764;2023-04-12T12:10:14;99536.75;;;14.08
69785;BMP280;14177;51.520;6.764;2023-04-12T12:13:11;99533.94;;;14.11
69785;BMP280;14177;51.520;6.764;2023-04-12T12:15:42;99526.97;;;14.12
69785;BMP280;14177;51.520;6.764;2023-04-12T12:18:10;99530.53;;;14.11
69785;BMP280;14177;51.520;6.764;2023-04-12T12:20:49;99526.84;;;14.27
69785;BMP280;14177;51.520;6.764;2023-04-12T12:23:30;99522.19;;;14.57
69785;BMP280;14177;51.520;6.764;2023-04-12T12:25:59;99521.31;;;14.83
69785;BMP280;14177;51.520;6.764;2023-04-12T12:28:53;99509.81;;;15.23
69785;BMP280;14177;51.520;6.764;2023-04-12T12:31:24;99520.47;;;15.45
69785;BMP280;14177;51.520;6.764;2023-04-12T12:33:57;99513.91;;;15.39
69785;BMP280;14177;51.520;6.764;2023-04-12T12:36:33;99525.81;;;15.31
69785;BMP280;14177;51.520;6.764;2023-04-12T12:39:07;99512.03;;;15.29
69785;BMP280;14177;51.520;6.764;2023-04-12T12:41:38;99527.00;;;15.27
69785;BMP280;14177;51.520;6.764;2023-04-12T12:44:05;99510.00;;;15.07
69785;BMP280;14177;51.520;6.764;2023-04-12T12:46:34;99521.53;;;14.92
69785;BMP280;14177;51.520;6.764;2023-04-12T12:49:04;99512.31;;;14.74
69785;BMP280;14177;51.520;6.764;2023-04-12T12:51:32;99526.31;;;14.73
69785;BMP280;14177;51.520;6.764;2023-04-12T12:53:59;99511.25;;;14.77
69785;BMP280;14177;51.520;6.764;2023-04-12T12:56:26;99509.38;;;14.79
69785;BMP280;14177;51.520;6.764;2023-04-12T12:58:53;99507.91;;;14.75
69785;BMP280;14177;51.520;6.764;2023-04-12T13:01:21;99508.94;;;14.60
69785;BMP280;14177;51.520;6.764;2023-04-12T13:03:48;99501.59;;;14.40
69785;BMP280;14177;51.520;6.764;2023-04-12T13:06:16;99505.09;;;14.27
69785;BMP280;14177;51.520;6.764;2023-04-12T13:08:43;99498.66;;;14.32
69785;BMP280;14177;51.520;6.764;2023-04-12T13:11:10;99494.81;;;14.50
69785;BMP280;14177;51.520;6.764;2023-04-12T13:13:37;99493.91;;;14.76
69785;BMP280;14177;51.520;6.764;2023-04-12T13:16:04;99492.88;;;15.28
69785;BMP280;14177;51.520;6.764;2023-04-12T13:18:32;99482.66;;;15.61
69785;BMP280;14177;51.520;6.764;2023-04-12T13:20:59;99488.03;;;15.47
69785;BMP280;14177;51.520;6.764;2023-04-12T13:23:26;99499.44;;;15.21
69785;BMP280;14177;51.520;6.764;2023-04-12T13:25:53;99495.16;;;15.08
69785;BMP280;14177;51.520;6.764;2023-04-12T13:28:20;99506.44;;;15.08
69785;BMP280;14177;51.520;6.764;2023-04-12T13:30:47;99533.63;;;14.81
69785;BMP280;14177;51.520;6.764;2023-04-12T13:33:14;99545.28;;;14.38
69785;BMP280;14177;51.520;6.764;2023-04-12T13:35:47;99540.41;;;13.79
69785;BMP280;14177;51.520;6.764;2023-04-12T13:38:14;99557.13;;;13.21
69785;BMP280;14177;51.520;6.764;2023-04-12T13:40:41;99569.41;;;12.76
69785;BMP280;14177;51.520;6.764;2023-04-12T13:43:08;99570.50;;;12.42
69785;BMP280;14177;51.520;6.764;2023-04-12T13:45:36;99580.34;;;12.07
69785;BMP280;14177;51.520;6.764;2023-04-12T13:48:03;99574.41;;;11.89
69785;BMP280;14177;51.520;6.764;2023-04-12T13:50:30;99580.88;;;11.82
69785;BMP280;14177;51.520;6.764;2023-04-12T13:52:57;99579.34;;;11.78
69785;BMP280;14177;51.520;6.764;2023-04-12T13:55:24;99590.19;;;11.71
69785;BMP280;14177;51.520;6.764;2023-04-12T13:57:51;99589.16;;;11.58
69785;BMP280;14177;51.520;6.764;2023-04-12T14:00:19;99593.38;;;11.43
69785;BMP280;14177;51.520;6.764;2023-04-12T14:02:46;99593.69;;;11.37
69785;BMP280;14177;51.520;6.764;2023-04-12T14:05:13;99603.66;;;11.29
69785;BMP280;14177;51.520;6.764;2023-04-12T14:07:40;99608.56;;;11.18
69785;BMP280;14177;51.520;6.764;2023-04-12T14:10:08;99601.53;;;11.03
69785;BMP280;14177;51.520;6.764;2023-04-12T14:12:36;99619.47;;;10.92
69785;BMP280;14177;51.520;6.764;2023-04-12T14:15:03;99613.81;;;10.85
69785;BMP280;14177;51.520;6.764;2023-04-12T14:17:34;99618.84;;;10.71
69785;BMP280;14177;51.520;6.764;2023-04-12T14:20:01;99616.75;;;10.60
69785;BMP280;14177;51.520;6.764;2023-04-12T14:22:32;99623.88;;;10.57
69785;BMP280;14177;51.520;6.764;2023-04-12T14:24:59;99618.75;;;10.55
69785;BMP280;14177;51.520;6.764;2023-04-12T14:27:26;99622.94;;;10.58
69785;BMP280;14177;51.520;6.764;2023-04-12T14:29:53;99625.53;;;10.58
69785;BMP280;14177;51.520;6.764;2023-04-12T14:32:20;99622.19;;;10.56
69785;BMP280;14177;51.520;6.764;2023-04-12T14:34:48;99632.41;;;10.59
69785;BMP280;14177;51.520;6.764;2023-04-12T14:37:15;99624.44;;;10.45
69785;BMP280;14177;51.520;6.764;2023-04-12T14:39:42;99618.78;;;10.37
69785;BMP280;14177;51.520;6.764;2023-04-12T14:42:10;99611.91;;;10.36
69785;BMP280;14177;51.520;6.764;2023-04-12T14:44:37;99621.53;;;10.34
69785;BMP280;14177;51.520;6.764;2023-04-12T14:47:04;99631.75;;;10.37
69785;BMP280;14177;51.520;6.764;2023-04-12T14:49:31;99641.03;;;10.42
69785;BMP280;14177;51.520;6.764;2023-04-12T14:51:59;99649.34;;;10.49
69785;BMP280;14177;51.520;6.764;2023-04-12T14:54:27;99642.75;;;10.42
69785;BMP280;14177;51.520;6.764;2023-04-12T14:56:54;99640.53;;;10.34
69785;BMP280;14177;51.520;6.764;2023-04-12T14:59:23;99637.19;;;10.32
69785;BMP280;14177;51.520;6.764;2023-04-12T15:01:52;99650.06;;;10.34
69785;BMP280;14177;51.520;6.764;2023-04-12T15:04:20;99660.44;;;10.34
69785;BMP280;14177;51.520;6.764;2023-04-12T15:06:47;99658.38;;;10.23
69785;BMP280;14177;51.520;6.764;2023-04-12T15:09:14;99666.53;;;10.16
69785;BMP280;14177;51.520;6.764;2023-04-12T15:11:50;99663.06;;;9.97
69785;BMP280;14177;51.520;6.764;2023-04-12T15:14:22;99675.53;;;9.89
69785;BMP280;14177;51.520;6.764;2023-04-12T15:16:49;99672.56;;;9.78
69785;BMP280;14177;51.520;6.764;2023-04-12T15:19:16;99679.78;;;9.71
69785;BMP280;14177;51.520;6.764;2023-04-12T15:21:53;99674.75;;;9.68
69785;BMP280;14177;51.520;6.764;2023-04-12T15:24:25;99662.47;;;9.72
69785;BMP280;14177;51.520;6.764;2023-04-12T15:27:05;99661.69;;;9.88
69785;BMP280;14177;51.520;6.764;2023-04-12T15:29:51;99657.84;;;10.17
69785;BMP280;14177;51.520;6.764;2023-04-12T15:36:11;99661.78;;;11.11